createdAt,value
2018-07-25T00:00:34.335Z,58.50
2018-07-25T00:02:36.343Z,58.60
2018-07-25T00:04:38.368Z,58.60
2018-07-25T00:06:40.352Z,58.60
2018-07-25T00:08:42.312Z,58.70
2018-07-25T00:10:44.307Z,58.60
2018-07-25T00:12:46.298Z,58.60
2018-07-25T00:14:48.295Z,58.60
2018-07-25T00:16:50.308Z,58.60
2018-07-25T00:18:52.297Z,58.50
2018-07-25T00:20:54.311Z,58.60
2018-07-25T00:22:56.346Z,58.60
2018-07-25T00:24:58.354Z,58.60
2018-07-25T00:27:00.342Z,58.50
2018-07-25T00:29:02.349Z,58.60
2018-07-25T00:31:04.342Z,58.70
2018-07-25T00:33:06.337Z,58.60
2018-07-25T00:35:08.301Z,58.50
2018-07-25T00:37:10.317Z,58.60
2018-07-25T00:39:12.301Z,58.60
2018-07-25T00:41:14.300Z,58.60
2018-07-25T00:43:16.283Z,58.70
2018-07-25T00:45:18.287Z,58.50
2018-07-25T00:47:20.297Z,58.50
2018-07-25T00:49:22.311Z,58.50
2018-07-25T00:51:24.285Z,58.60
2018-07-25T00:53:26.305Z,58.50
2018-07-25T00:55:28.341Z,59.30
2018-07-25T00:57:30.332Z,58.60
2018-07-25T00:59:32.313Z,58.60
2018-07-25T01:01:34.396Z,58.60
2018-07-25T01:03:36.412Z,58.50
2018-07-25T01:05:38.610Z,58.60
2018-07-25T01:07:40.685Z,58.60
2018-07-25T01:09:42.675Z,58.60
2018-07-25T01:11:44.675Z,58.50
2018-07-25T01:13:46.681Z,58.50
2018-07-25T01:15:48.671Z,58.50
2018-07-25T01:17:50.688Z,58.60
2018-07-25T01:19:52.720Z,58.50
2018-07-25T01:21:54.707Z,58.50
2018-07-25T01:23:56.703Z,58.50
2018-07-25T01:25:58.689Z,58.60
2018-07-25T01:28:00.693Z,58.50
2018-07-25T01:30:02.700Z,58.50
2018-07-25T01:32:04.689Z,58.50
2018-07-25T01:34:06.669Z,58.50
2018-07-25T01:36:08.659Z,59.30
2018-07-25T01:38:10.683Z,58.50
2018-07-25T01:40:12.736Z,58.60
2018-07-25T01:42:14.731Z,58.70
2018-07-25T01:44:16.757Z,58.60
2018-07-25T01:46:18.778Z,58.30
2018-07-25T01:48:20.775Z,58.40
2018-07-25T01:50:22.760Z,58.30
2018-07-25T01:52:24.737Z,58.20
2018-07-25T01:54:26.731Z,58.20
2018-07-25T01:56:28.711Z,58.10
2018-07-25T01:58:30.768Z,58.20
2018-07-25T02:00:32.813Z,58.10
2018-07-25T02:02:35.127Z,58.20
2018-07-25T02:04:37.133Z,58.10
2018-07-25T02:06:39.131Z,58.20
2018-07-25T02:08:41.111Z,58.20
2018-07-25T02:10:43.135Z,58.10
2018-07-25T02:12:45.102Z,58.10
2018-07-25T02:14:47.098Z,58.20
2018-07-25T02:16:49.119Z,58.10
2018-07-25T02:18:51.109Z,58.10
2018-07-25T02:20:53.097Z,58.10
2018-07-25T02:22:55.084Z,58.10
2018-07-25T02:24:57.062Z,58.20
2018-07-25T02:26:59.100Z,58.10
2018-07-25T02:29:01.090Z,58.10
2018-07-25T02:31:03.087Z,58.10
2018-07-25T02:33:05.100Z,58.20
2018-07-25T02:35:07.112Z,58.10
2018-07-25T02:37:09.108Z,58.10
2018-07-25T02:39:11.116Z,58.10
2018-07-25T02:41:13.097Z,58.20
2018-07-25T02:43:15.088Z,58.20
2018-07-25T02:45:17.103Z,58.10
2018-07-25T02:47:19.096Z,58.10
2018-07-25T02:49:21.101Z,58.10
2018-07-25T02:51:23.091Z,57.90
2018-07-25T02:53:25.093Z,58.20
2018-07-25T02:55:27.069Z,58.20
2018-07-25T02:57:29.097Z,58.10
2018-07-25T02:59:31.080Z,58.20
2018-07-25T03:01:33.059Z,58.20
2018-07-25T03:03:35.063Z,58.30
2018-07-25T03:05:37.046Z,58.20
2018-07-25T03:07:39.028Z,58.20
2018-07-25T03:09:41.021Z,57.50
2018-07-25T03:11:43.000Z,58.10
2018-07-25T03:15:47.296Z,58.20
2018-07-25T03:17:49.288Z,58.20
2018-07-25T03:19:51.288Z,58.10
2018-07-25T03:21:53.285Z,58.20
2018-07-25T03:23:55.314Z,58.20
2018-07-25T03:25:57.304Z,58.30
2018-07-25T03:27:59.277Z,58.20
2018-07-25T03:30:01.279Z,58.90
2018-07-25T03:32:03.275Z,58.30
2018-07-25T03:34:05.350Z,58.30
2018-07-25T03:36:07.355Z,58.20
2018-07-25T03:38:09.334Z,58.20
2018-07-25T03:40:11.342Z,58.30
2018-07-25T03:42:13.307Z,58.20
2018-07-25T03:44:15.283Z,58.20
2018-07-25T03:46:17.270Z,58.30
2018-07-25T03:48:19.271Z,58.30
2018-07-25T03:50:21.275Z,58.20
2018-07-25T03:52:23.262Z,58.20
2018-07-25T03:54:25.260Z,58.40
2018-07-25T03:56:27.254Z,58.40
2018-07-25T03:58:29.252Z,58.30
2018-07-25T04:00:31.252Z,58.30
2018-07-25T04:02:33.249Z,58.30
2018-07-25T04:04:35.222Z,58.30
2018-07-25T04:06:37.210Z,58.30
2018-07-25T04:08:39.199Z,58.30
2018-07-25T04:10:41.254Z,58.30
2018-07-25T04:12:43.241Z,58.30
2018-07-25T04:14:45.210Z,58.50
2018-07-25T04:16:47.208Z,59.00
2018-07-25T04:18:49.201Z,58.20
2018-07-25T04:20:51.218Z,58.20
2018-07-25T04:22:53.196Z,58.30
2018-07-25T04:24:55.164Z,58.20
2018-07-25T04:26:57.152Z,58.20
2018-07-25T04:28:59.172Z,58.30
2018-07-25T04:31:01.152Z,58.20
2018-07-25T04:33:03.134Z,58.40
2018-07-25T04:35:05.124Z,58.20
2018-07-25T04:37:07.118Z,58.20
2018-07-25T04:39:09.107Z,58.40
2018-07-25T04:41:11.071Z,58.30
2018-07-25T04:43:13.081Z,58.30
2018-07-25T04:45:15.078Z,58.40
2018-07-25T04:47:17.071Z,58.40
2018-07-25T04:49:19.139Z,58.30
2018-07-25T04:51:21.133Z,58.40
2018-07-25T04:53:23.140Z,58.20
2018-07-25T04:55:25.137Z,58.20
2018-07-25T04:57:27.105Z,58.30
2018-07-25T04:59:29.111Z,58.30
2018-07-25T05:01:31.116Z,58.20
2018-07-25T05:03:33.112Z,58.10
2018-07-25T05:05:35.110Z,58.00
2018-07-25T05:07:37.161Z,57.90
2018-07-25T05:09:39.147Z,57.90
2018-07-25T05:11:41.113Z,58.00
2018-07-25T05:13:43.121Z,58.00
2018-07-25T05:15:45.124Z,58.00
2018-07-25T05:17:47.179Z,58.10
2018-07-25T05:19:49.134Z,58.10
2018-07-25T05:21:51.118Z,58.80
2018-07-25T05:23:53.147Z,58.10
2018-07-25T05:25:55.167Z,58.80
2018-07-25T05:27:57.203Z,58.10
2018-07-25T05:29:59.427Z,58.10
2018-07-25T05:32:01.403Z,58.10
2018-07-25T05:34:03.419Z,58.10
2018-07-25T05:36:05.411Z,58.10
2018-07-25T05:38:07.408Z,58.10
2018-07-25T05:40:09.424Z,58.10
2018-07-25T05:42:11.422Z,58.00
2018-07-25T05:44:13.433Z,58.00
2018-07-25T05:46:15.457Z,58.00
2018-07-25T05:48:17.461Z,58.00
2018-07-25T05:50:19.507Z,58.00
2018-07-25T05:52:21.482Z,58.10
2018-07-25T05:54:23.475Z,57.90
2018-07-25T05:56:25.472Z,58.00
2018-07-25T05:58:27.454Z,58.10
2018-07-25T06:00:29.462Z,58.10
2018-07-25T06:02:31.451Z,58.10
2018-07-25T06:04:33.452Z,58.10
2018-07-25T06:06:35.443Z,58.10
2018-07-25T06:08:37.452Z,57.50
2018-07-25T06:10:39.444Z,58.10
2018-07-25T06:12:41.428Z,58.10
2018-07-25T06:14:43.511Z,58.00
2018-07-25T06:16:45.516Z,58.10
2018-07-25T06:18:47.520Z,58.10
2018-07-25T06:20:49.513Z,58.10
2018-07-25T06:22:51.511Z,58.10
2018-07-25T06:24:53.510Z,58.00
2018-07-25T06:26:55.498Z,58.00
2018-07-25T06:28:57.553Z,58.00
2018-07-25T06:30:59.547Z,58.10
2018-07-25T06:33:01.523Z,58.00
2018-07-25T06:35:03.525Z,57.90
2018-07-25T06:37:05.514Z,58.00
2018-07-25T06:39:07.525Z,58.00
2018-07-25T06:41:09.497Z,58.00
2018-07-25T06:43:11.529Z,58.00
2018-07-25T06:45:13.529Z,58.00
2018-07-25T06:47:15.515Z,57.90
2018-07-25T06:49:17.528Z,57.90
2018-07-25T06:51:19.513Z,58.00
2018-07-25T06:53:21.515Z,58.10
2018-07-25T06:55:23.512Z,58.10
2018-07-25T06:57:25.513Z,58.10
2018-07-25T06:59:27.473Z,58.10
2018-07-25T07:01:29.472Z,58.10
2018-07-25T07:03:31.468Z,58.10
2018-07-25T07:05:33.441Z,58.00
2018-07-25T07:07:35.453Z,58.00
2018-07-25T07:09:37.443Z,58.00
2018-07-25T07:11:39.416Z,58.00
2018-07-25T07:13:41.393Z,58.10
2018-07-25T07:15:43.392Z,58.10
2018-07-25T07:17:45.393Z,58.00
2018-07-25T07:19:47.388Z,58.00
2018-07-25T07:21:49.423Z,58.10
2018-07-25T07:23:51.454Z,58.00
2018-07-25T07:25:53.469Z,57.90
2018-07-25T07:27:55.406Z,57.90
2018-07-25T07:29:57.408Z,57.90
2018-07-25T07:31:59.378Z,57.80
2018-07-25T07:34:01.389Z,57.90
2018-07-25T07:36:03.387Z,58.10
2018-07-25T07:38:05.392Z,57.90
2018-07-25T07:40:07.400Z,57.90
2018-07-25T07:42:09.364Z,58.00
2018-07-25T07:44:11.399Z,58.10
2018-07-25T07:46:13.397Z,58.10
2018-07-25T07:48:15.372Z,58.20
2018-07-25T07:50:17.378Z,58.30
2018-07-25T07:52:19.346Z,58.30
2018-07-25T07:54:21.356Z,58.40
2018-07-25T07:56:23.339Z,58.40
2018-07-25T07:58:25.324Z,58.30
2018-07-25T08:00:27.304Z,58.90
2018-07-25T08:02:29.287Z,58.30
2018-07-25T08:04:31.493Z,58.20
2018-07-25T08:06:33.643Z,58.00
2018-07-25T08:08:35.613Z,58.10
2018-07-25T08:10:37.640Z,58.00
2018-07-25T08:12:39.622Z,58.00
2018-07-25T08:14:41.608Z,58.00
2018-07-25T08:16:43.605Z,58.00
2018-07-25T08:18:45.581Z,58.00
2018-07-25T08:20:47.606Z,58.00
2018-07-25T08:22:49.603Z,58.10
2018-07-25T08:24:51.600Z,58.10
2018-07-25T08:28:55.861Z,58.30
2018-07-25T08:30:57.873Z,58.30
2018-07-25T08:32:59.868Z,58.30
2018-07-25T08:35:01.850Z,58.40
2018-07-25T08:37:03.868Z,58.20
2018-07-25T08:39:05.857Z,58.20
2018-07-25T08:41:07.863Z,58.20
2018-07-25T08:43:09.954Z,58.30
2018-07-25T08:45:11.940Z,58.30
2018-07-25T08:47:13.947Z,58.30
2018-07-25T08:49:15.934Z,58.30
2018-07-25T08:51:17.957Z,58.30
2018-07-25T08:53:19.967Z,58.30
2018-07-25T08:55:21.981Z,58.40
2018-07-25T08:57:23.977Z,58.20
2018-07-25T08:59:25.948Z,58.10
2018-07-25T09:01:27.998Z,58.30
2018-07-25T09:03:29.969Z,58.20
2018-07-25T09:05:32.001Z,58.20
2018-07-25T09:07:34.062Z,58.30
2018-07-25T09:09:36.070Z,58.30
2018-07-25T09:11:38.323Z,58.30
2018-07-25T09:13:40.291Z,58.30
2018-07-25T09:15:42.311Z,58.20
2018-07-25T09:17:44.286Z,58.40
2018-07-25T09:19:46.330Z,58.40
2018-07-25T09:21:48.587Z,58.40
2018-07-25T09:25:52.891Z,58.80
2018-07-25T09:27:54.942Z,58.40
2018-07-25T09:29:56.938Z,58.20
2018-07-25T09:31:58.951Z,58.50
2018-07-25T09:34:00.978Z,58.30
2018-07-25T09:36:02.955Z,58.40
2018-07-25T09:38:04.964Z,58.50
2018-07-25T09:40:06.972Z,58.50
2018-07-25T09:42:08.972Z,58.40
2018-07-25T09:44:11.003Z,58.20
2018-07-25T09:46:13.009Z,58.30
2018-07-25T09:48:15.030Z,58.50
2018-07-25T09:50:17.038Z,58.40
2018-07-25T09:52:19.061Z,57.90
2018-07-25T09:54:21.083Z,57.70
2018-07-25T09:56:23.097Z,56.90
2018-07-25T10:00:27.374Z,56.00
2018-07-25T10:02:29.383Z,55.60
2018-07-25T10:04:31.427Z,55.00
2018-07-25T10:06:33.477Z,55.00
2018-07-25T10:08:35.501Z,54.30
2018-07-25T10:10:37.519Z,54.80
2018-07-25T10:12:39.553Z,53.70
2018-07-25T10:14:41.650Z,53.70
2018-07-25T10:16:43.641Z,53.70
2018-07-25T10:18:45.659Z,54.30
2018-07-25T10:20:47.797Z,53.10
2018-07-25T10:22:49.784Z,53.20
2018-07-25T10:24:51.790Z,52.90
2018-07-25T10:26:53.854Z,52.40
2018-07-25T10:28:55.877Z,53.30
2018-07-25T10:30:57.883Z,52.90
2018-07-25T10:32:59.955Z,52.80
2018-07-25T10:35:02.003Z,53.00
2018-07-25T10:37:04.019Z,52.50
2018-07-25T10:39:06.062Z,52.40
2018-07-25T10:41:08.085Z,52.60
2018-07-25T10:43:10.103Z,52.70
2018-07-25T10:45:12.147Z,52.00
2018-07-25T10:47:14.180Z,51.90
2018-07-25T10:49:16.201Z,52.40
2018-07-25T10:51:18.223Z,52.30
2018-07-25T10:53:20.241Z,52.40
2018-07-25T10:55:22.293Z,51.80
2018-07-25T10:57:24.369Z,51.70
2018-07-25T11:01:28.731Z,52.40
2018-07-25T11:05:33.033Z,51.70
2018-07-25T11:07:35.069Z,51.30
2018-07-25T11:09:37.424Z,52.70
2018-07-25T11:11:39.476Z,52.00
2018-07-25T11:13:41.487Z,52.40
2018-07-25T11:15:43.503Z,52.60
2018-07-25T11:17:45.547Z,52.40
2018-07-25T11:19:47.583Z,52.00
2018-07-25T11:21:49.590Z,53.10
2018-07-25T11:23:51.617Z,51.80
2018-07-25T11:25:53.642Z,52.50
2018-07-25T11:27:55.666Z,52.50
2018-07-25T11:29:57.681Z,52.50
2018-07-25T11:31:59.701Z,52.00
2018-07-25T11:34:01.753Z,51.80
2018-07-25T11:36:03.776Z,51.50
2018-07-25T11:38:05.814Z,51.40
2018-07-25T11:40:07.840Z,51.50
2018-07-25T11:42:09.855Z,51.40
2018-07-25T11:44:11.885Z,51.20
2018-07-25T11:46:13.887Z,52.10
2018-07-25T11:50:18.257Z,51.20
2018-07-25T11:52:20.239Z,51.10
2018-07-25T11:54:22.222Z,51.40
2018-07-25T11:56:24.235Z,50.80
